Time;durP1;ratioP1;P1;durP2;ratioP2;P2;SDS_P1;SDS_P2;PMS_P1;PMS_P2;Temp;Humidity;BMP_temperature;BMP_pressure;BME280_temperature;BME280_humidity;BME280_pressure;Samples;Min_cycle;Max_cycle;Signal;HPM_P1;HPM_P2
2022/01/30 00:00:56;;;;;;;26.58;3.97;;;;;;;5.99;100.00;102855.78;5295767;28;20031;-80
2022/01/30 00:03:27;;;;;;;27.40;5.55;;;;;;;5.99;100.00;102863.75;5285014;28;20095;-80
2022/01/30 00:05:57;;;;;;;24.23;4.25;;;;;;;6.03;100.00;102862.66;5273460;28;20114;-80
2022/01/30 00:08:29;;;;;;;23.13;4.07;;;;;;;6.02;100.00;102863.56;5271558;28;20151;-79
2022/01/30 00:11:07;;;;;;;19.77;4.88;;;;;;;6.01;100.00;102861.84;5289644;28;20049;-80
2022/01/30 00:13:38;;;;;;;24.80;3.47;;;;;;;5.97;100.00;102859.38;5287490;28;20116;-80
2022/01/30 00:16:10;;;;;;;23.35;4.25;;;;;;;5.97;100.00;102870.03;5268807;28;20069;-79
2022/01/30 00:23:50;;;;;;;39.72;3.70;;;;;;;5.86;100.00;102864.41;5287417;28;20467;-79
2022/01/30 00:26:27;;;;;;;28.98;3.65;;;;;;;5.84;100.00;102862.78;5286994;28;20019;-79
2022/01/30 00:28:58;;;;;;;23.23;3.55;;;;;;;5.79;100.00;102871.03;5287168;28;20167;-79
2022/01/30 00:31:29;;;;;;;17.85;3.25;;;;;;;5.75;100.00;102879.28;5279781;28;20114;-79
2022/01/30 00:34:01;;;;;;;20.65;2.92;;;;;;;5.71;100.00;102881.25;5252594;28;20024;-80
2022/01/30 00:36:32;;;;;;;25.90;3.17;;;;;;;5.64;100.00;102879.88;5248381;28;20492;-80
2022/01/30 00:39:03;;;;;;;18.65;3.15;;;;;;;5.60;100.00;102873.00;5248373;28;20058;-80
2022/01/30 00:41:33;;;;;;;21.80;3.70;;;;;;;5.51;100.00;102868.19;5265599;28;20032;-80
2022/01/30 00:44:04;;;;;;;24.15;4.03;;;;;;;5.48;100.00;102869.22;5270706;28;20035;-80
2022/01/30 00:46:34;;;;;;;31.65;4.25;;;;;;;5.47;100.00;102870.13;5268223;28;20019;-80
2022/01/30 00:49:05;;;;;;;18.65;3.80;;;;;;;5.40;100.00;102874.94;5267255;28;20157;-80
2022/01/30 00:51:37;;;;;;;24.00;4.38;;;;;;;5.44;100.00;102880.97;5271440;28;20152;-80
2022/01/30 00:54:08;;;;;;;32.95;4.53;;;;;;;5.44;100.00;102886.28;5288989;28;20058;-80
2022/01/30 00:56:38;;;;;;;23.27;3.80;;;;;;;5.49;100.00;102878.06;5259272;28;20081;-80
2022/01/30 00:59:09;;;;;;;22.23;3.75;;;;;;;5.50;100.00;102883.28;5255697;28;20019;-78
2022/01/30 01:01:39;;;;;;;19.80;3.47;;;;;;;5.53;100.00;102892.94;5271139;28;20024;-78
2022/01/30 01:04:10;;;;;;;24.55;3.80;;;;;;;5.46;100.00;102881.75;5293602;28;20402;-79
2022/01/30 01:06:40;;;;;;;27.08;4.10;;;;;;;5.39;100.00;102889.19;5276045;28;20016;-79
2022/01/30 01:09:12;;;;;;;22.05;3.40;;;;;;;5.27;100.00;102897.88;5268799;28;20102;-78
2022/01/30 01:12:12;;;;;;;23.13;3.97;;;;;;;5.24;100.00;102895.34;5268696;28;20028;-81
2022/01/30 01:26:00;;;;;;;29.00;3.92;;;;;;;5.23;100.00;102896.28;5288914;28;20027;-80
2022/01/30 01:28:30;;;;;;;22.50;3.78;;;;;;;5.17;100.00;102888.63;5273364;28;20103;-78
2022/01/30 01:31:02;;;;;;;35.80;4.05;;;;;;;5.16;100.00;102897.53;5284027;28;20111;-78
2022/01/30 01:36:16;;;;;;;21.10;3.60;;;;;;;5.07;100.00;102900.69;5266777;28;20028;-79
2022/01/30 01:38:46;;;;;;;13.20;3.35;;;;;;;5.11;100.00;102908.44;5258877;28;20367;-79
2022/01/30 01:41:20;;;;;;;25.20;3.85;;;;;;;5.14;100.00;102907.44;5270992;28;20028;-79
2022/01/30 01:43:51;;;;;;;24.15;3.65;;;;;;;5.11;100.00;102916.41;5266454;28;20071;-78
2022/01/30 01:46:26;;;;;;;20.05;4.15;;;;;;;5.09;100.00;102928.09;5264337;28;20020;-78
2022/01/30 01:48:56;;;;;;;25.23;4.47;;;;;;;5.04;100.00;102927.47;5277956;28;20054;-78
2022/01/30 01:51:31;;;;;;;28.20;3.42;;;;;;;5.00;100.00;102923.25;5286632;28;20082;-79
2022/01/30 01:54:02;;;;;;;34.60;4.63;;;;;;;4.94;100.00;102930.59;5288613;28;20130;-79
2022/01/30 01:56:32;;;;;;;23.17;4.40;;;;;;;4.85;100.00;102932.88;5268952;28;20099;-79
2022/01/30 01:59:03;;;;;;;23.70;3.75;;;;;;;4.78;100.00;102932.34;5259026;28;20031;-79
2022/01/30 02:01:33;;;;;;;28.77;4.35;;;;;;;4.74;100.00;102935.22;5252749;28;20023;-80
2022/01/30 02:04:04;;;;;;;28.27;4.43;;;;;;;4.69;100.00;102927.47;5276131;28;20036;-80
2022/01/30 02:06:35;;;;;;;30.65;4.20;;;;;;;4.63;100.00;102933.09;5280154;28;20031;-80
2022/01/30 02:09:11;;;;;;;34.17;6.03;;;;;;;4.60;100.00;102942.06;5269914;28;20020;-79
2022/01/30 02:11:45;;;;;;;24.75;4.32;;;;;;;4.60;100.00;102934.09;5288006;28;20027;-79
2022/01/30 02:25:38;;;;;;;30.42;5.25;;;;;;;4.58;100.00;102937.78;5287317;28;20035;-80
2022/01/30 02:28:13;;;;;;;33.00;4.50;;;;;;;4.51;100.00;102936.34;5270723;28;20486;-80
2022/01/30 02:30:53;;;;;;;;;;;;;;;4.44;100.00;102937.59;5272129;28;20271;-80
2022/01/30 02:33:24;;;;;;;27.13;4.18;;;;;;;4.37;100.00;102940.56;5285831;28;19926;-79
2022/01/30 02:35:54;;;;;;;26.30;3.58;;;;;;;4.28;100.00;102946.34;5290761;28;20023;-79
2022/01/30 02:38:27;;;;;;;18.40;3.65;;;;;;;4.20;100.00;102937.84;5272232;28;20031;-80
2022/01/30 02:40:58;;;;;;;22.10;4.88;;;;;;;4.11;100.00;102941.81;5271785;28;20023;-80
2022/01/30 02:43:34;;;;;;;39.35;6.28;;;;;;;4.02;100.00;102936.09;5272209;28;20157;-80
2022/01/30 02:46:11;;;;;;;33.28;4.72;;;;;;;3.94;100.00;102932.94;5290158;28;20252;-80
2022/01/30 02:48:50;;;;;;;20.13;3.75;;;;;;;3.81;100.00;102930.84;5289785;28;20600;-80
2022/01/30 02:51:22;;;;;;;18.67;4.28;;;;;;;3.73;100.00;102946.28;5272169;28;20030;-80
2022/01/30 02:56:47;;;;;;;21.55;4.95;;;;;;;3.59;100.00;102951.34;5293522;28;20023;-80
2022/01/30 02:59:22;;;;;;;;;;;;;;;3.51;100.00;102942.88;5297541;28;20053;-80
2022/01/30 03:01:53;;;;;;;19.50;4.95;;;;;;;3.44;100.00;102944.09;5269917;28;20382;-80
2022/01/30 03:04:24;;;;;;;21.05;4.70;;;;;;;3.42;100.00;102943.31;5272668;28;20031;-84
2022/01/30 03:06:55;;;;;;;28.17;4.50;;;;;;;3.37;100.00;102944.38;5269269;28;20026;-81
2022/01/30 03:09:26;;;;;;;19.80;3.90;;;;;;;3.37;100.00;102943.50;5291872;28;20027;-80
2022/01/30 03:11:57;;;;;;;29.30;5.13;;;;;;;3.31;100.00;102947.31;5292004;28;20054;-80
2022/01/30 03:14:28;;;;;;;30.83;4.47;;;;;;;3.26;100.00;102945.75;5272765;28;20534;-80
2022/01/30 03:16:58;;;;;;;35.85;5.25;;;;;;;3.20;100.00;102938.06;5285339;28;20055;-81
2022/01/30 03:19:29;;;;;;;38.05;5.97;;;;;;;3.10;100.00;102938.47;5258187;28;20107;-80
2022/01/30 03:21:59;;;;;;;27.55;4.68;;;;;;;3.05;100.00;102944.91;5254141;28;20035;-80
2022/01/30 03:24:35;;;;;;;33.08;5.32;;;;;;;3.03;100.00;102952.09;5251599;28;20024;-80
2022/01/30 03:27:09;;;;;;;26.27;5.10;;;;;;;3.01;100.00;102951.25;5269603;28;20103;-80
2022/01/30 03:29:41;;;;;;;20.80;3.85;;;;;;;2.97;100.00;102950.56;5265063;28;20457;-80
2022/01/30 03:32:11;;;;;;;30.50;5.30;;;;;;;2.94;100.00;102955.13;5264189;28;20034;-81
2022/01/30 03:34:42;;;;;;;24.48;4.25;;;;;;;2.88;100.00;102953.59;5256926;28;20024;-80
2022/01/30 03:37:12;;;;;;;31.10;6.50;;;;;;;2.79;100.00;102967.22;5269251;28;20039;-81
2022/01/30 03:39:42;;;;;;;34.50;7.38;;;;;;;2.72;100.00;102973.72;5268988;28;20024;-81
2022/01/30 03:42:13;;;;;;;37.65;8.45;;;;;;;2.65;100.00;102970.44;5269318;28;20104;-80
2022/01/30 03:44:43;;;;;;;31.15;6.43;;;;;;;2.60;100.00;102978.59;5269115;28;20016;-80
2022/01/30 03:47:14;;;;;;;24.63;5.45;;;;;;;2.64;100.00;102965.22;5269744;28;20561;-80
2022/01/30 03:49:44;;;;;;;22.63;5.22;;;;;;;2.63;100.00;102972.31;5261139;28;20038;-80
2022/01/30 03:52:16;;;;;;;25.38;4.75;;;;;;;2.60;100.00;102964.47;5254380;28;20032;-80
2022/01/30 03:54:47;;;;;;;25.48;4.18;;;;;;;2.60;100.00;102972.44;5267050;28;20020;-80
2022/01/30 03:57:17;;;;;;;28.40;6.60;;;;;;;2.58;100.00;102972.50;5266833;28;20453;-81
2022/01/30 03:59:48;;;;;;;17.45;4.53;;;;;;;2.56;100.00;102962.88;5267143;28;20117;-81
2022/01/30 04:02:18;;;;;;;30.25;5.32;;;;;;;2.52;100.00;102962.16;5270225;28;20058;-81
2022/01/30 04:04:49;;;;;;;23.90;4.57;;;;;;;2.46;100.00;102956.22;5270203;28;20059;-81
2022/01/30 04:07:20;;;;;;;36.88;5.60;;;;;;;2.41;100.00;102963.50;5271889;28;20119;-81
2022/01/30 04:09:50;;;;;;;29.92;6.63;;;;;;;2.38;100.00;102972.44;5273820;28;20028;-80
2022/01/30 04:12:21;;;;;;;36.88;5.85;;;;;;;2.40;100.00;102981.19;5274987;28;20035;-80
2022/01/30 04:14:52;;;;;;;27.88;5.60;;;;;;;2.38;100.00;102983.03;5252246;28;20038;-81
2022/01/30 04:17:23;;;;;;;31.00;6.28;;;;;;;2.34;100.00;102990.25;5274076;28;20011;-80
2022/01/30 04:19:54;;;;;;;32.33;5.75;;;;;;;2.36;100.00;103000.78;5272942;28;20514;-81
2022/01/30 04:22:25;;;;;;;36.97;5.00;;;;;;;2.37;100.00;102999.88;5290816;28;20027;-80
2022/01/30 04:24:55;;;;;;;25.60;5.75;;;;;;;2.33;100.00;102998.25;5284346;28;20024;-81
2022/01/30 04:27:26;;;;;;;38.47;5.38;;;;;;;2.27;100.00;103009.97;5269155;28;20016;-80
2022/01/30 04:29:57;;;;;;;29.05;5.03;;;;;;;2.21;100.00;103015.50;5268001;28;20506;-80
2022/01/30 04:32:29;;;;;;;26.38;5.03;;;;;;;2.17;100.00;103023.63;5278030;28;20039;-80
2022/01/30 04:35:10;;;;;;;37.22;5.55;;;;;;;2.12;100.00;103015.84;5281241;28;20122;-80
2022/01/30 04:37:50;;;;;;;27.98;5.05;;;;;;;2.08;100.00;103015.09;5249911;28;20040;-81
2022/01/30 05:07:57;;;;;;;34.20;11.73;;;;;;;1.97;100.00;103024.38;5279932;28;20023;-80
2022/01/30 05:10:28;;;;;;;32.25;10.07;;;;;;;1.98;100.00;103029.59;5252046;28;20024;-80
2022/01/30 05:13:01;;;;;;;29.38;5.30;;;;;;;2.16;100.00;103037.75;5270287;28;20108;-80
2022/01/30 05:15:32;;;;;;;30.15;7.07;;;;;;;2.16;100.00;103038.66;5255196;28;20027;-80
2022/01/30 05:18:03;;;;;;;23.77;5.13;;;;;;;2.22;100.00;103035.75;5264104;28;20034;-80
2022/01/30 05:20:35;;;;;;;28.30;6.05;;;;;;;2.27;100.00;103030.28;5259020;28;20023;-81
2022/01/30 05:23:06;;;;;;;37.22;7.90;;;;;;;2.31;100.00;103021.31;5293530;28;20024;-81
2022/01/30 05:25:37;;;;;;;32.63;7.78;;;;;;;2.33;100.00;103022.09;5288391;28;20020;-81
2022/01/30 05:28:08;;;;;;;41.67;8.07;;;;;;;2.35;100.00;103028.19;5272002;28;20027;-81
2022/01/30 05:30:39;;;;;;;39.50;7.80;;;;;;;2.41;100.00;103037.66;5281229;28;20569;-80
2022/01/30 05:33:12;;;;;;;38.78;6.07;;;;;;;2.46;100.00;103041.00;5287509;28;20034;-80
2022/01/30 05:35:43;;;;;;;27.08;8.57;;;;;;;2.48;100.00;103047.13;5291681;28;20027;-80
2022/01/30 05:38:13;;;;;;;44.55;5.97;;;;;;;2.57;100.00;103047.63;5273734;28;20024;-80
2022/01/30 05:40:44;;;;;;;36.58;7.85;;;;;;;2.62;100.00;103058.03;5291562;28;20543;-80
2022/01/30 05:43:15;;;;;;;37.83;6.65;;;;;;;2.60;100.00;103065.19;5291271;28;20117;-80
2022/01/30 05:45:54;;;;;;;31.90;7.68;;;;;;;2.65;100.00;103073.81;5256341;28;20076;-80
2022/01/30 05:48:24;;;;;;;24.27;6.47;;;;;;;2.72;100.00;103074.44;5291446;28;20027;-80
2022/01/30 05:50:55;;;;;;;35.80;7.50;;;;;;;2.79;100.00;103071.47;5272557;28;20039;-80
2022/01/30 05:53:26;;;;;;;35.67;5.07;;;;;;;2.87;100.00;103072.97;5291104;28;20474;-80
2022/01/30 05:55:56;;;;;;;23.85;6.15;;;;;;;2.87;100.00;103068.53;5289798;28;20016;-81
2022/01/30 05:58:27;;;;;;;33.33;5.82;;;;;;;2.90;100.00;103067.53;5285844;28;20023;-83
2022/01/30 06:00:57;;;;;;;29.67;5.05;;;;;;;2.95;100.00;103066.41;5269044;28;20039;-84
2022/01/30 06:03:29;;;;;;;25.52;5.88;;;;;;;2.92;100.00;103071.00;5268531;28;20031;-83
2022/01/30 06:06:00;;;;;;;27.67;6.60;;;;;;;2.84;100.00;103063.34;5278179;28;20020;-78
2022/01/30 06:11:19;;;;;;;32.17;5.22;;;;;;;2.63;100.00;103072.16;5286248;28;20119;-78
2022/01/30 06:13:49;;;;;;;26.67;5.50;;;;;;;2.59;100.00;103069.63;5271304;28;20515;-79
2022/01/30 06:16:20;;;;;;;35.38;5.90;;;;;;;2.57;100.00;103075.91;5274284;28;20034;-78
2022/01/30 06:18:50;;;;;;;25.88;5.47;;;;;;;2.70;100.00;103074.50;5291062;28;20102;-79
2022/01/30 06:21:21;;;;;;;31.13;5.15;;;;;;;2.75;100.00;103069.00;5291085;28;20028;-79
2022/01/30 06:23:51;;;;;;;35.05;5.38;;;;;;;2.79;100.00;103078.56;5273332;28;20030;-79
2022/01/30 06:26:22;;;;;;;41.22;5.03;;;;;;;2.85;100.00;103084.47;5274153;28;20026;-79
2022/01/30 06:28:52;;;;;;;27.83;5.13;;;;;;;2.89;100.00;103084.38;5291211;28;20110;-80
2022/01/30 06:31:23;;;;;;;22.60;3.92;;;;;;;2.92;100.00;103092.22;5279542;28;20035;-82
2022/01/30 06:33:54;;;;;;;24.02;6.32;;;;;;;3.03;100.00;103092.63;5272913;28;20071;-82
2022/01/30 06:36:24;;;;;;;54.00;12.10;;;;;;;3.07;100.00;103087.13;5267701;28;20031;-78
2022/01/30 06:38:55;;;;;;;37.80;6.07;;;;;;;3.21;100.00;103098.94;5284768;28;20024;-79
2022/01/30 06:41:25;;;;;;;29.88;9.13;;;;;;;3.23;100.00;103090.03;5267605;28;20063;-79
2022/01/30 06:43:56;;;;;;;35.97;6.30;;;;;;;3.26;100.00;103092.56;5259696;28;20024;-81
2022/01/30 06:46:26;;;;;;;30.35;7.57;;;;;;;3.26;100.00;103095.22;5266081;28;20028;-81
2022/01/30 06:48:57;;;;;;;39.33;6.13;;;;;;;3.28;100.00;103096.00;5266366;28;20038;-81
2022/01/30 06:51:27;;;;;;;26.67;4.47;;;;;;;3.30;100.00;103096.78;5250855;28;20470;-81
2022/01/30 06:53:58;;;;;;;38.72;5.10;;;;;;;3.29;100.00;103094.19;5259032;28;20539;-81
2022/01/30 06:56:28;;;;;;;26.10;5.65;;;;;;;3.21;100.00;103102.47;5247753;28;20107;-81
2022/01/30 06:58:59;;;;;;;32.25;5.60;;;;;;;3.08;100.00;103095.97;5248030;28;20074;-81
2022/01/30 07:01:29;;;;;;;29.10;5.10;;;;;;;2.98;100.00;103110.53;5283096;28;20032;-81
2022/01/30 07:04:00;;;;;;;35.85;6.70;;;;;;;2.85;100.00;103094.22;5234370;28;20027;-80
2022/01/30 07:06:30;;;;;;;34.95;4.50;;;;;;;2.69;100.00;103096.63;5278812;28;20103;-79
2022/01/30 07:09:01;;;;;;;27.55;5.45;;;;;;;2.57;100.00;103107.72;5280925;28;20058;-80
2022/01/30 07:11:31;;;;;;;24.35;5.35;;;;;;;2.48;100.00;103108.06;5248364;28;20036;-80
2022/01/30 07:14:02;;;;;;;27.30;4.63;;;;;;;2.43;100.00;103102.09;5248550;28;20525;-81
2022/01/30 07:16:32;;;;;;;31.02;7.95;;;;;;;2.40;100.00;103116.28;5267657;28;20415;-81
2022/01/30 07:19:03;;;;;;;18.77;5.70;;;;;;;2.40;100.00;103115.44;5257418;28;20031;-81
2022/01/30 07:21:33;;;;;;;40.90;7.20;;;;;;;2.50;100.00;103109.72;5289161;28;20122;-81
2022/01/30 07:24:04;;;;;;;24.67;4.60;;;;;;;2.53;100.00;103114.06;5271112;28;20478;-81
2022/01/30 07:26:35;;;;;;;26.48;5.05;;;;;;;2.65;100.00;103110.91;5288945;28;20398;-81
2022/01/30 07:29:05;;;;;;;39.42;8.55;;;;;;;2.62;100.00;103115.50;5270875;28;20024;-81
2022/01/30 07:31:36;;;;;;;32.05;6.55;;;;;;;2.61;100.00;103122.59;5263450;28;20532;-82
2022/01/30 07:34:06;;;;;;;42.03;15.75;;;;;;;2.56;100.00;103132.47;5256849;28;20434;-81
2022/01/30 07:36:38;;;;;;;33.10;7.90;;;;;;;2.47;100.00;103132.84;5267627;28;20020;-81
2022/01/30 07:39:12;;;;;;;34.53;6.35;;;;;;;2.39;100.00;103140.19;5250490;28;20024;-83
2022/01/30 07:41:43;;;;;;;31.30;8.38;;;;;;;2.36;100.00;103125.31;5250189;28;20028;-80
2022/01/30 07:44:14;;;;;;;43.63;6.93;;;;;;;2.43;100.00;103131.22;5267182;28;20455;-80
2022/01/30 07:46:44;;;;;;;30.33;7.18;;;;;;;2.58;100.00;103131.50;5267730;28;20052;-80
2022/01/30 07:49:15;;;;;;;34.60;5.97;;;;;;;2.75;100.00;103128.19;5268471;28;20024;-81
2022/01/30 07:51:45;;;;;;;27.63;6.32;;;;;;;3.02;100.00;103128.91;5267929;28;20077;-80
2022/01/30 07:54:16;;;;;;;34.33;4.57;;;;;;;3.33;100.00;103135.59;5265881;28;20395;-81
2022/01/30 07:56:47;;;;;;;32.65;4.88;;;;;;;3.62;100.00;103126.41;5289214;28;20023;-79
2022/01/30 07:59:17;;;;;;;29.30;4.63;;;;;;;3.87;100.00;103126.22;5274831;28;20057;-80
2022/01/30 08:01:47;;;;;;;26.98;4.18;;;;;;;4.15;100.00;103120.53;5292472;28;20034;-80
2022/01/30 08:04:18;;;;;;;25.92;5.25;;;;;;;4.33;100.00;103118.84;5273593;28;20463;-84
2022/01/30 08:06:48;;;;;;;37.40;4.63;;;;;;;4.53;100.00;103100.16;5287231;28;20053;-83
2022/01/30 08:09:19;;;;;;;32.25;5.88;;;;;;;4.72;100.00;103109.91;5267997;28;20069;-83
2022/01/30 08:11:49;;;;;;;27.85;4.22;;;;;;;4.85;100.00;103106.59;5271996;28;20194;-84
2022/01/30 08:14:20;;;;;;;23.30;4.13;;;;;;;4.96;100.00;103102.56;5271987;28;20023;-84
2022/01/30 08:16:50;;;;;;;25.40;4.70;;;;;;;5.16;100.00;103107.75;5272006;28;20563;-84
2022/01/30 08:19:23;;;;;;;29.58;5.00;;;;;;;5.48;100.00;103103.50;5277649;28;20028;-83
2022/01/30 08:21:56;;;;;;;29.85;4.47;;;;;;;5.74;100.00;103111.94;5289063;28;20023;-82
2022/01/30 08:24:26;;;;;;;35.42;4.30;;;;;;;6.08;100.00;103117.25;5272567;28;20528;-81
2022/01/30 08:26:58;;;;;;;26.55;4.18;;;;;;;6.16;100.00;103117.69;5295727;28;20023;-81
2022/01/30 08:29:29;;;;;;;27.10;5.25;;;;;;;6.62;100.00;103128.50;5274458;28;20019;-81
2022/01/30 08:32:00;;;;;;;25.83;4.70;;;;;;;6.92;100.00;103131.28;5278300;28;20027;-80
2022/01/30 08:34:31;;;;;;;20.58;3.92;;;;;;;7.04;100.00;103123.53;5273293;28;20387;-81
2022/01/30 08:37:02;;;;;;;27.15;4.28;;;;;;;7.39;100.00;103127.69;5268514;28;20028;-81
2022/01/30 08:39:33;;;;;;;18.48;3.50;;;;;;;7.53;100.00;103127.75;5247241;28;20728;-82
2022/01/30 08:42:04;;;;;;;24.48;5.13;;;;;;;7.69;100.00;103129.50;5273688;28;20044;-81
2022/01/30 08:44:34;;;;;;;24.70;4.95;;;;;;;7.41;100.00;103136.47;5267835;28;20440;-81
2022/01/30 08:47:05;;;;;;;27.02;6.15;;;;;;;7.43;100.00;103144.38;5286855;28;20031;-81
2022/01/30 08:49:35;;;;;;;24.65;6.10;;;;;;;7.55;100.00;103161.50;5286147;28;20474;-81
2022/01/30 08:52:06;;;;;;;22.30;4.47;;;;;;;7.74;100.00;103155.00;5286163;28;20031;-79
2022/01/30 08:54:37;;;;;;;23.30;3.80;;;;;;;8.14;100.00;103149.03;5285413;28;20016;-78
2022/01/30 08:57:07;;;;;;;26.52;4.85;;;;;;;8.12;100.00;103156.28;5285719;28;20036;-82
2022/01/30 08:59:38;;;;;;;28.17;5.40;;;;;;;8.77;100.00;103149.50;5268666;28;20470;-81
2022/01/30 09:02:08;;;;;;;20.17;4.18;;;;;;;9.41;100.00;103154.28;5268958;28;20098;-78
2022/01/30 09:04:39;;;;;;;26.20;4.97;;;;;;;9.37;100.00;103158.13;5265394;28;20107;-79
2022/01/30 09:07:09;;;;;;;24.08;4.70;;;;;;;10.09;100.00;103149.59;5282803;28;20072;-79
2022/01/30 09:09:40;;;;;;;22.20;5.32;;;;;;;10.40;100.00;103155.50;5285668;28;20076;-79
2022/01/30 09:12:10;;;;;;;28.42;5.90;;;;;;;10.59;100.00;103144.28;5286156;28;20156;-81
2022/01/30 09:14:42;;;;;;;22.00;6.20;;;;;;;10.70;100.00;103151.59;5286174;28;20051;-79
2022/01/30 09:17:14;;;;;;;28.83;5.55;;;;;;;10.72;100.00;103155.00;5285392;28;20020;-79
2022/01/30 09:19:46;;;;;;;20.60;4.22;;;;;;;10.38;100.00;103157.44;5285513;28;20023;-79
2022/01/30 09:22:18;;;;;;;23.13;4.97;;;;;;;10.46;100.00;103168.47;5287043;28;20020;-78
2022/01/30 09:24:49;;;;;;;25.20;5.35;;;;;;;10.16;100.00;103162.56;5277158;28;20039;-80
2022/01/30 09:27:19;;;;;;;20.27;4.57;;;;;;;9.85;100.00;103165.53;5265365;28;20402;-80
2022/01/30 09:29:50;;;;;;;16.83;4.03;;;;;;;9.05;100.00;103178.03;5266148;28;20028;-80
2022/01/30 09:32:20;;;;;;;21.50;4.65;;;;;;;8.47;100.00;103176.38;5277405;28;20023;-80
2022/01/30 09:34:51;;;;;;;33.83;5.30;;;;;;;8.02;100.00;103193.41;5265782;28;20034;-79
2022/01/30 09:37:21;;;;;;;24.67;5.03;;;;;;;8.47;100.00;103195.13;5246293;28;20768;-80
2022/01/30 09:39:52;;;;;;;19.67;4.20;;;;;;;9.19;100.00;103193.22;5269578;28;20034;-78
2022/01/30 09:42:24;;;;;;;22.27;4.22;;;;;;;9.92;100.00;103192.78;5269811;28;20035;-80
2022/01/30 09:45:00;;;;;;;31.45;6.03;;;;;;;10.00;100.00;103198.50;5287578;28;20019;-80
2022/01/30 09:47:31;;;;;;;18.52;4.28;;;;;;;9.83;100.00;103196.94;5284980;28;20387;-80
2022/01/30 09:50:04;;;;;;;27.30;4.32;;;;;;;10.06;100.00;103191.84;5266893;28;20038;-79
2022/01/30 09:52:37;;;;;;;22.17;5.25;;;;;;;10.02;100.00;103187.66;5284960;28;20028;-79
2022/01/30 09:55:08;;;;;;;23.20;4.85;;;;;;;10.98;100.00;103198.75;5269124;28;20028;-79
2022/01/30 09:57:40;;;;;;;25.48;4.13;;;;;;;10.82;100.00;103209.75;5269018;28;20479;-83
2022/01/30 10:00:11;;;;;;;25.70;4.30;;;;;;;10.72;100.00;103206.03;5285056;28;20058;-82
2022/01/30 10:02:43;;;;;;;26.67;5.15;;;;;;;10.84;100.00;103202.44;5257644;28;20032;-80
2022/01/30 10:05:15;;;;;;;22.92;4.82;;;;;;;11.02;100.00;103211.00;5280951;28;20032;-80
2022/01/30 10:07:51;;;;;;;24.92;5.32;;;;;;;10.81;100.00;103214.28;5282270;28;20659;-80
2022/01/30 10:10:24;;;;;;;28.10;4.95;;;;;;;10.96;100.00;103211.47;5252838;28;20028;-80
2022/01/30 10:13:14;;;;;;;27.95;4.88;;;;;;;10.65;100.00;103212.81;5253302;28;20028;-80
2022/01/30 10:15:57;;;;;;;24.70;4.88;;;;;;;10.59;100.00;103214.06;5262859;28;20096;-80
2022/01/30 10:18:32;;;;;;;27.77;5.55;;;;;;;10.54;100.00;103217.13;5271723;28;20016;-80
2022/01/30 10:21:02;;;;;;;25.48;5.72;;;;;;;10.28;100.00;103210.88;5289456;28;20038;-80
2022/01/30 10:23:34;;;;;;;28.33;5.22;;;;;;;10.05;100.00;103219.63;5254596;28;20023;-80
2022/01/30 10:26:09;;;;;;;22.17;4.43;;;;;;;9.77;100.00;103217.97;5270410;28;20790;-82
2022/01/30 10:28:41;;;;;;;32.10;5.27;;;;;;;9.57;100.00;103220.16;5289972;28;20317;-81
2022/01/30 10:31:12;;;;;;;25.25;4.00;;;;;;;9.67;100.00;103220.41;5264790;28;20266;-80
2022/01/30 10:34:01;;;;;;;26.17;4.60;;;;;;;9.40;100.00;103215.06;5263303;28;20493;-82
2022/01/30 10:36:32;;;;;;;19.90;5.50;;;;;;;9.16;100.00;103222.88;5260408;28;20023;-82
2022/01/30 10:41:56;;;;;;;27.33;5.25;;;;;;;9.12;100.00;103209.78;5268840;28;20103;-79
2022/01/30 10:44:26;;;;;;;28.95;4.93;;;;;;;9.11;100.00;103213.41;5247250;28;20035;-81
2022/01/30 10:46:57;;;;;;;29.30;5.65;;;;;;;9.23;100.00;103215.28;5213032;28;20020;-83
2022/01/30 10:49:27;;;;;;;23.58;4.45;;;;;;;9.29;100.00;103212.22;5247637;28;20028;-83
2022/01/30 10:52:01;;;;;;;24.80;4.90;;;;;;;9.54;100.00;103204.28;5285373;28;20024;-86
2022/01/30 10:54:33;;;;;;;27.88;5.80;;;;;;;9.41;100.00;103210.56;5292817;28;20023;-84
2022/01/30 10:57:07;;;;;;;25.98;6.50;;;;;;;9.45;100.00;103207.56;5278209;28;20023;-82
2022/01/30 11:02:28;;;;;;;23.60;5.68;;;;;;;9.14;100.00;103218.59;5294023;28;20035;-82
2022/01/30 11:05:16;;;;;;;29.15;6.72;;;;;;;9.30;100.00;103206.75;5250358;28;20063;-83
2022/01/30 11:07:49;;;;;;;22.73;4.80;;;;;;;9.46;100.00;103201.25;5268839;28;20020;-82
2022/01/30 11:10:25;;;;;;;22.00;6.50;;;;;;;9.54;100.00;103201.59;5255708;28;20031;-82
2022/01/30 11:12:57;;;;;;;26.05;5.70;;;;;;;9.41;100.00;103194.47;5267058;28;20402;-85
2022/01/30 11:17:59;;;;;;;26.83;3.63;;;;;;;9.30;100.00;103187.16;5293176;28;20059;-84
2022/01/30 11:20:32;;;;;;;25.02;4.65;;;;;;;9.10;100.00;103184.91;5292672;28;20027;-85
2022/01/30 11:23:03;;;;;;;24.65;4.93;;;;;;;8.90;100.00;103188.88;5274129;28;20024;-84
2022/01/30 11:25:37;;;;;;;25.50;4.63;;;;;;;8.73;100.00;103182.75;5273766;28;20032;-84
2022/01/30 11:28:10;;;;;;;26.80;4.03;;;;;;;8.73;100.00;103180.09;5257120;28;20026;-84
2022/01/30 11:30:43;;;;;;;28.70;6.95;;;;;;;8.66;100.00;103177.91;5270785;28;20038;-83
2022/01/30 11:33:14;;;;;;;25.40;4.38;;;;;;;8.52;100.00;103171.59;5290088;28;20479;-83
2022/01/30 11:35:45;;;;;;;20.52;4.05;;;;;;;8.37;100.00;103172.56;5292214;28;20023;-84
2022/01/30 11:38:15;;;;;;;28.60;4.32;;;;;;;8.26;100.00;103177.69;5274973;28;20020;-83
2022/01/30 11:41:16;;;;;;;19.90;3.63;;;;;;;8.24;100.00;103156.41;5272987;28;20019;-83
2022/01/30 11:44:21;;;;;;;40.30;4.63;;;;;;;8.26;100.00;103169.66;5281624;28;20031;-81
2022/01/30 11:47:02;;;;;;;25.70;4.13;;;;;;;8.51;100.00;103169.91;5269108;28;20061;-82
2022/01/30 11:49:45;;;;;;;24.33;4.40;;;;;;;8.73;100.00;103164.03;5276096;28;20051;-83
2022/01/30 11:52:18;;;;;;;24.00;5.03;;;;;;;8.63;100.00;103159.38;5275370;28;20028;-83
2022/01/30 11:54:51;;;;;;;29.90;4.57;;;;;;;8.40;100.00;103161.69;5292959;28;20222;-83
2022/01/30 11:57:21;;;;;;;21.73;4.90;;;;;;;8.19;100.00;103152.31;5293596;28;20036;-83
2022/01/30 11:59:54;;;;;;;27.35;5.78;;;;;;;7.94;100.00;103152.94;5293906;28;20027;-83
2022/01/30 12:02:28;;;;;;;35.58;4.93;;;;;;;7.77;100.00;103149.44;5275522;28;20169;-83
2022/01/30 12:05:33;;;;;;;29.95;5.03;;;;;;;7.59;100.00;103153.22;5290676;28;20020;-81
2022/01/30 12:08:04;;;;;;;32.80;4.88;;;;;;;7.52;100.00;103149.19;5279352;28;20110;-82
2022/01/30 12:10:34;;;;;;;25.95;4.82;;;;;;;7.42;100.00;103148.00;5289345;28;20444;-81
2022/01/30 12:13:06;;;;;;;32.50;11.80;;;;;;;7.38;100.00;103149.13;5290269;28;20256;-82
2022/01/30 12:15:40;;;;;;;33.13;5.40;;;;;;;7.33;100.00;103144.09;5270134;28;20376;-81
2022/01/30 12:18:26;;;;;;;32.25;6.03;;;;;;;7.40;100.00;103139.22;5288689;28;20047;-81
2022/01/30 12:20:57;;;;;;;26.27;4.95;;;;;;;7.36;100.00;103133.19;5288726;28;20106;-82
2022/01/30 12:23:43;;;;;;;22.33;4.50;;;;;;;7.33;100.00;103133.41;5289632;28;20047;-82
2022/01/30 12:26:15;;;;;;;24.95;5.30;;;;;;;7.38;100.00;103131.31;5271518;28;20036;-82
2022/01/30 12:28:48;;;;;;;31.15;4.05;;;;;;;7.40;100.00;103131.22;5271352;28;20177;-84
2022/01/30 12:31:38;;;;;;;13.10;3.83;;;;;;;7.24;100.00;103125.91;5283669;28;20028;-84
2022/01/30 12:34:28;;;;;;;31.75;4.75;;;;;;;7.22;100.00;103128.66;5266069;28;20398;-82
2022/01/30 12:36:58;;;;;;;27.85;3.90;;;;;;;7.25;100.00;103120.47;5276910;28;20036;-84
2022/01/30 12:39:29;;;;;;;22.67;4.35;;;;;;;7.20;100.00;103119.03;5269924;28;20043;-84
2022/01/30 12:41:59;;;;;;;34.63;4.85;;;;;;;7.24;100.00;103109.91;5270120;28;20031;-84
2022/01/30 12:44:30;;;;;;;19.05;4.20;;;;;;;7.34;100.00;103100.41;5269924;28;20051;-84
2022/01/30 12:47:01;;;;;;;24.08;3.28;;;;;;;7.52;100.00;103095.75;5272004;28;20024;-83
2022/01/30 12:49:39;;;;;;;29.75;3.22;;;;;;;7.73;100.00;103097.16;5289161;28;20062;-84
2022/01/30 12:52:20;;;;;;;24.33;4.20;;;;;;;7.69;100.00;103089.44;5289485;28;20136;-84